createdAt,value
2022-09-16T00:00:55.413Z,20.07
2022-09-16T00:01:58.573Z,20.07
2022-09-16T00:03:01.962Z,20.06
2022-09-16T00:04:04.868Z,20.07
2022-09-16T00:05:08.683Z,20.04
2022-09-16T00:06:25.874Z,19.88
2022-09-16T00:07:30.421Z,19.78
2022-09-16T00:08:33.532Z,19.77
2022-09-16T00:09:38.418Z,19.73
2022-09-16T00:10:43.019Z,19.75
2022-09-16T00:11:45.863Z,19.71
2022-09-16T00:12:50.075Z,19.74
2022-09-16T00:13:53.249Z,19.73
2022-09-16T00:14:56.414Z,19.66
2022-09-16T00:15:59.312Z,19.61
2022-09-16T00:17:02.384Z,19.59
2022-09-16T00:18:05.452Z,19.57
2022-09-16T00:19:09.537Z,19.55
2022-09-16T00:20:12.529Z,19.53
2022-09-16T00:21:15.567Z,19.46
2022-09-16T00:22:19.191Z,19.38
2022-09-16T00:23:22.158Z,19.31
2022-09-16T00:24:25.117Z,19.29
2022-09-16T00:25:28.034Z,19.21
2022-09-16T00:26:31.562Z,19.18
2022-09-16T00:27:34.727Z,19.14
2022-09-16T00:28:37.837Z,19.12
2022-09-16T00:29:40.993Z,19.07
2022-09-16T00:30:43.949Z,19.02
2022-09-16T00:31:47.110Z,19.00
2022-09-16T00:32:50.088Z,18.97
2022-09-16T00:33:52.958Z,18.90
2022-09-16T00:34:55.832Z,18.88
2022-09-16T00:36:15.210Z,18.83
2022-09-16T00:37:18.059Z,18.83
2022-09-16T00:38:21.172Z,18.81
2022-09-16T00:39:24.138Z,18.83
2022-09-16T00:40:27.276Z,18.84
2022-09-16T00:41:34.844Z,18.91
2022-09-16T00:42:41.266Z,18.94
2022-09-16T00:43:51.197Z,19.03
2022-09-16T00:45:15.837Z,19.07
2022-09-16T00:46:39.409Z,19.14
2022-09-16T00:47:53.274Z,19.12
2022-09-16T00:49:01.022Z,19.27
2022-09-16T00:50:13.030Z,19.33
2022-09-16T00:51:17.142Z,19.48
2022-09-16T00:52:20.442Z,19.42
2022-09-16T00:53:34.448Z,19.48
2022-09-16T00:54:39.821Z,19.50
2022-09-16T00:55:44.953Z,19.55
2022-09-16T00:56:54.755Z,19.57
2022-09-16T00:58:08.894Z,19.60
2022-09-16T00:59:20.382Z,19.59
2022-09-16T01:00:23.273Z,19.52
2022-09-16T01:01:26.546Z,19.46
2022-09-16T01:02:29.625Z,19.44
2022-09-16T01:03:44.924Z,19.39
2022-09-16T01:05:08.388Z,19.41
2022-09-16T01:06:14.080Z,19.42
2022-09-16T01:07:24.644Z,19.46
2022-09-16T01:08:27.812Z,19.54
2022-09-16T01:09:31.775Z,19.57
2022-09-16T01:10:34.838Z,19.65
2022-09-16T01:11:37.892Z,19.86
2022-09-16T01:12:46.532Z,19.87
2022-09-16T01:13:50.517Z,19.89
2022-09-16T01:14:53.450Z,19.88
2022-09-16T01:16:11.217Z,19.95
2022-09-16T01:17:50.690Z,19.97
2022-09-16T01:18:56.215Z,19.94
2022-09-16T01:20:29.923Z,19.99
2022-09-16T01:21:47.803Z,19.91
2022-09-16T01:23:17.927Z,20.04
2022-09-16T01:24:43.643Z,20.00
2022-09-16T01:26:30.068Z,20.05
2022-09-16T01:28:01.336Z,20.02
2022-09-16T01:29:53.369Z,20.10
2022-09-16T01:31:36.585Z,20.14
2022-09-16T01:33:20.660Z,20.22
2022-09-16T01:34:44.363Z,20.20
2022-09-16T01:36:00.693Z,20.30
2022-09-16T01:37:40.532Z,20.31
2022-09-16T01:39:08.171Z,20.38
2022-09-16T01:40:46.216Z,20.36
2022-09-16T01:42:37.080Z,20.42
2022-09-16T01:44:27.072Z,20.45
2022-09-16T01:45:50.701Z,20.50
2022-09-16T01:47:21.979Z,20.51
2022-09-16T01:48:55.070Z,20.55
2022-09-16T01:50:18.712Z,20.52
2022-09-16T01:51:28.746Z,20.57
2022-09-16T01:53:23.877Z,20.62
2022-09-16T01:54:32.831Z,20.59
2022-09-16T01:55:52.444Z,20.57
2022-09-16T01:57:24.985Z,20.56
2022-09-16T01:59:00.205Z,20.61
2022-09-16T02:00:11.389Z,20.61
2022-09-16T02:01:28.183Z,20.63
2022-09-16T02:02:54.672Z,20.62
2022-09-16T02:04:05.909Z,20.64
2022-09-16T02:05:37.334Z,20.77
2022-09-16T02:06:43.957Z,20.79
2022-09-16T02:07:55.827Z,20.83
2022-09-16T02:09:18.922Z,20.82
2022-09-16T02:10:44.914Z,20.83
2022-09-16T02:11:52.177Z,20.79
2022-09-16T02:13:11.615Z,20.80
2022-09-16T02:14:30.302Z,20.82
2022-09-16T02:15:34.367Z,20.85
2022-09-16T02:16:49.175Z,20.88
2022-09-16T02:18:09.671Z,20.92
2022-09-16T02:19:24.369Z,20.90
2022-09-16T02:20:31.814Z,20.87
2022-09-16T02:21:45.431Z,20.89
2022-09-16T02:22:56.271Z,20.85
2022-09-16T02:24:05.660Z,20.90
2022-09-16T02:25:11.659Z,20.93
2022-09-16T02:26:21.083Z,20.93
2022-09-16T02:27:24.437Z,20.83
2022-09-16T02:28:38.990Z,20.84
2022-09-16T02:29:56.347Z,20.80
2022-09-16T02:31:06.156Z,20.83
2022-09-16T02:32:11.622Z,20.83
2022-09-16T02:33:16.951Z,20.83
2022-09-16T02:34:31.298Z,20.81
2022-09-16T02:35:38.589Z,20.79
2022-09-16T02:36:45.793Z,20.80
2022-09-16T02:38:01.790Z,20.83
2022-09-16T02:39:13.894Z,20.82
2022-09-16T02:40:32.425Z,20.94
2022-09-16T02:41:38.927Z,20.86
2022-09-16T02:42:41.883Z,20.85
2022-09-16T02:43:46.023Z,20.82
2022-09-16T02:44:49.198Z,20.86
2022-09-16T02:46:06.969Z,20.86
2022-09-16T02:47:17.523Z,20.78
2022-09-16T02:48:40.463Z,20.69
2022-09-16T02:50:43.534Z,20.68
2022-09-16T02:52:15.624Z,20.66
2022-09-16T02:53:38.205Z,20.58
2022-09-16T02:55:21.639Z,20.42
2022-09-16T02:56:39.418Z,20.34
2022-09-16T02:57:42.813Z,20.25
2022-09-16T02:58:45.824Z,20.02
2022-09-16T02:59:49.556Z,19.92
2022-09-16T03:00:55.743Z,19.83
2022-09-16T03:02:00.481Z,19.76
2022-09-16T03:03:03.953Z,19.67
2022-09-16T03:04:08.448Z,19.62
2022-09-16T03:05:11.451Z,19.59
2022-09-16T03:06:22.963Z,19.53
2022-09-16T03:07:26.896Z,19.40
2022-09-16T03:08:30.217Z,19.43
2022-09-16T03:09:38.190Z,19.36
2022-09-16T03:10:46.606Z,19.31
2022-09-16T03:12:05.471Z,19.29
2022-09-16T03:13:37.517Z,19.36
2022-09-16T03:15:27.828Z,19.34
2022-09-16T03:16:47.710Z,19.32
2022-09-16T03:18:41.488Z,19.25
2022-09-16T03:19:59.209Z,19.08
2022-09-16T03:21:21.718Z,19.17
2022-09-16T03:22:37.796Z,19.16
2022-09-16T03:24:09.871Z,19.12
2022-09-16T03:26:02.006Z,19.15
2022-09-16T03:27:32.550Z,19.17
2022-09-16T03:29:02.956Z,19.12
2022-09-16T03:30:09.126Z,19.18
2022-09-16T03:31:45.713Z,19.14
2022-09-16T03:32:56.669Z,19.15
2022-09-16T03:34:11.291Z,19.12
2022-09-16T03:35:48.904Z,19.06
2022-09-16T03:37:00.729Z,19.09
2022-09-16T03:38:05.979Z,19.14
2022-09-16T03:39:10.827Z,19.08
2022-09-16T03:40:19.262Z,19.08
2022-09-16T03:41:23.254Z,19.13
2022-09-16T03:42:26.840Z,19.15
2022-09-16T03:43:29.649Z,19.16
2022-09-16T03:44:39.209Z,19.12
2022-09-16T03:45:43.059Z,19.12
2022-09-16T03:46:46.121Z,19.07
2022-09-16T03:47:52.173Z,19.07
2022-09-16T03:48:56.776Z,18.99
2022-09-16T03:49:59.811Z,18.96
2022-09-16T03:51:02.829Z,18.97
2022-09-16T03:52:07.224Z,18.96
2022-09-16T03:53:10.268Z,19.17
2022-09-16T03:54:13.166Z,19.19
2022-09-16T03:55:17.040Z,19.19
2022-09-16T03:56:22.333Z,19.19
2022-09-16T03:57:25.362Z,19.21
2022-09-16T03:58:28.193Z,19.19
2022-09-16T03:59:31.582Z,19.21
2022-09-16T04:00:34.768Z,19.25
2022-09-16T04:01:37.719Z,19.20
2022-09-16T04:02:40.825Z,19.17
2022-09-16T04:03:43.897Z,19.21
2022-09-16T04:04:46.915Z,19.23
2022-09-16T04:05:56.504Z,19.09
2022-09-16T04:06:59.643Z,19.08
2022-09-16T04:08:02.811Z,18.96
2022-09-16T04:09:08.222Z,19.00
2022-09-16T04:10:12.568Z,18.98
2022-09-16T04:11:15.514Z,18.81
2022-09-16T04:12:18.498Z,18.91
2022-09-16T04:13:21.405Z,18.85
2022-09-16T04:14:24.319Z,18.88
2022-09-16T04:15:27.275Z,18.83
2022-09-16T04:16:31.094Z,18.82
2022-09-16T04:17:34.673Z,18.83
2022-09-16T04:18:37.841Z,18.85
2022-09-16T04:19:40.725Z,18.80
2022-09-16T04:20:43.604Z,18.78
2022-09-16T04:21:46.772Z,18.85
2022-09-16T04:22:49.894Z,18.83
2022-09-16T04:23:54.666Z,18.81
2022-09-16T04:24:58.163Z,18.85
2022-09-16T04:26:03.283Z,18.86
2022-09-16T04:27:06.477Z,18.85
2022-09-16T04:28:09.538Z,18.83
2022-09-16T04:29:12.845Z,18.82
2022-09-16T04:30:16.015Z,18.82
2022-09-16T04:31:19.183Z,18.86
2022-09-16T04:32:22.153Z,18.93
2022-09-16T04:33:32.651Z,18.89
2022-09-16T04:34:35.614Z,18.90
2022-09-16T04:35:38.377Z,18.92
2022-09-16T04:36:41.296Z,18.90
2022-09-16T04:37:44.498Z,18.92
2022-09-16T04:38:49.460Z,18.92
2022-09-16T04:39:53.518Z,18.97
2022-09-16T04:41:09.613Z,19.08
2022-09-16T04:42:12.661Z,19.09
2022-09-16T04:43:15.601Z,19.09
2022-09-16T04:44:18.602Z,19.05
2022-09-16T04:45:21.443Z,19.05
2022-09-16T04:46:27.248Z,19.09
2022-09-16T04:47:30.432Z,19.15
2022-09-16T04:48:34.743Z,19.15
2022-09-16T04:49:37.787Z,19.15
2022-09-16T04:50:40.834Z,19.17
2022-09-16T04:51:43.678Z,19.12
2022-09-16T04:52:46.793Z,19.17
2022-09-16T04:53:50.517Z,19.19
2022-09-16T04:54:53.550Z,19.23
2022-09-16T04:56:15.615Z,19.32
2022-09-16T04:57:18.491Z,19.34
2022-09-16T04:58:21.847Z,19.40
2022-09-16T04:59:24.742Z,19.37
2022-09-16T05:00:27.872Z,19.44
2022-09-16T05:01:37.731Z,19.44
2022-09-16T05:02:40.813Z,19.45
2022-09-16T05:03:47.393Z,19.54
2022-09-16T05:04:50.491Z,19.63
2022-09-16T05:05:53.490Z,19.67
2022-09-16T05:06:56.745Z,19.70
2022-09-16T05:07:59.693Z,19.83
2022-09-16T05:09:04.296Z,19.92
2022-09-16T05:10:07.880Z,19.99
2022-09-16T05:11:14.593Z,20.14
2022-09-16T05:12:17.621Z,20.13
2022-09-16T05:13:21.437Z,20.32
2022-09-16T05:14:24.525Z,20.43
2022-09-16T05:15:27.534Z,20.50
2022-09-16T05:16:32.949Z,20.57
2022-09-16T05:17:51.958Z,20.59
2022-09-16T05:18:58.199Z,20.52
2022-09-16T05:20:01.214Z,20.54
2022-09-16T05:21:07.951Z,20.56
2022-09-16T05:22:11.152Z,20.54
2022-09-16T05:23:14.151Z,20.53
2022-09-16T05:24:17.287Z,20.58
2022-09-16T05:25:20.221Z,20.57
2022-09-16T05:26:26.686Z,20.54
2022-09-16T05:27:32.105Z,20.61
2022-09-16T05:28:36.342Z,20.71
2022-09-16T05:29:39.215Z,20.64
2022-09-16T05:30:42.556Z,20.81
2022-09-16T05:31:49.341Z,20.78
2022-09-16T05:32:55.389Z,20.86
2022-09-16T05:33:59.598Z,20.93
2022-09-16T05:35:02.428Z,20.98
2022-09-16T05:36:13.824Z,21.00
2022-09-16T05:37:20.007Z,21.08
2022-09-16T05:38:22.766Z,21.23
2022-09-16T05:39:26.278Z,21.61
2022-09-16T05:40:29.829Z,21.97
2022-09-16T05:41:33.230Z,22.50
2022-09-16T05:42:36.081Z,23.10
2022-09-16T05:43:39.603Z,23.56
2022-09-16T05:44:42.566Z,24.02
2022-09-16T05:45:55.729Z,24.59
2022-09-16T05:46:58.794Z,24.98
2022-09-16T05:48:02.329Z,25.16
2022-09-16T05:49:05.316Z,25.79
2022-09-16T05:50:08.684Z,26.67
2022-09-16T05:51:20.667Z,26.92
2022-09-16T05:52:25.581Z,27.55
2022-09-16T05:53:30.811Z,28.14
2022-09-16T05:54:33.623Z,28.36
2022-09-16T05:55:36.540Z,28.52
2022-09-16T05:56:40.120Z,28.77
2022-09-16T05:57:43.021Z,28.80
2022-09-16T05:58:46.925Z,28.76
2022-09-16T05:59:49.975Z,28.56
2022-09-16T06:01:02.164Z,29.07
2022-09-16T06:02:05.154Z,29.16
2022-09-16T06:03:08.789Z,29.50
2022-09-16T06:04:14.978Z,29.55
2022-09-16T06:05:18.074Z,29.51
2022-09-16T06:06:39.777Z,29.69
2022-09-16T06:07:42.627Z,29.71
2022-09-16T06:08:45.688Z,30.12
2022-09-16T06:09:48.783Z,30.24
2022-09-16T06:10:51.667Z,30.31
2022-09-16T06:12:01.462Z,30.41
2022-09-16T06:13:05.282Z,30.30
2022-09-16T06:14:08.703Z,30.70
2022-09-16T06:15:11.823Z,31.11
2022-09-16T06:16:14.786Z,31.29
2022-09-16T06:17:17.922Z,31.76
2022-09-16T06:18:22.632Z,32.12
2022-09-16T06:19:25.610Z,31.93
2022-09-16T06:20:28.790Z,32.41
2022-09-16T06:21:32.000Z,32.78
2022-09-16T06:22:35.587Z,33.21
2022-09-16T06:23:40.328Z,33.44
2022-09-16T06:24:43.165Z,33.71
2022-09-16T06:25:46.929Z,33.90
2022-09-16T06:26:50.119Z,34.34
2022-09-16T06:27:52.978Z,34.60
2022-09-16T06:28:56.294Z,34.49
2022-09-16T06:29:59.236Z,34.92
2022-09-16T06:31:11.039Z,35.07
2022-09-16T06:32:14.045Z,35.34
2022-09-16T06:33:17.036Z,35.41
2022-09-16T06:34:19.963Z,35.88
2022-09-16T06:35:22.937Z,36.38
2022-09-16T06:36:32.554Z,36.93
2022-09-16T06:37:35.476Z,37.37
2022-09-16T06:38:39.209Z,37.62
2022-09-16T06:39:42.727Z,38.29
2022-09-16T06:40:45.620Z,38.18
2022-09-16T06:41:49.208Z,38.41
2022-09-16T06:42:59.977Z,38.64
2022-09-16T06:44:03.089Z,38.92
2022-09-16T06:45:07.025Z,39.38
2022-09-16T06:46:22.964Z,39.49
2022-09-16T06:47:25.941Z,39.97
2022-09-16T06:48:32.117Z,39.57
2022-09-16T06:49:35.232Z,40.15
2022-09-16T06:50:38.389Z,39.76
2022-09-16T06:51:41.586Z,39.76
2022-09-16T06:52:44.972Z,39.34
2022-09-16T06:53:47.990Z,39.75
2022-09-16T06:54:51.120Z,40.03
2022-09-16T06:55:54.492Z,40.51
2022-09-16T06:56:57.674Z,40.63
2022-09-16T06:58:00.811Z,41.22
2022-09-16T06:59:04.219Z,41.72
2022-09-16T07:00:08.133Z,41.93
2022-09-16T07:01:14.507Z,41.72
2022-09-16T07:02:18.397Z,42.30
2022-09-16T07:03:21.216Z,42.06
2022-09-16T07:04:24.337Z,42.58
2022-09-16T07:05:27.581Z,42.40
2022-09-16T07:06:58.279Z,41.35
2022-09-16T07:07:53.968Z,41.19
2022-09-16T07:08:56.972Z,41.22
2022-09-16T07:09:59.872Z,41.97
2022-09-16T07:11:24.395Z,41.45
2022-09-16T07:12:29.034Z,40.86
2022-09-16T07:13:32.444Z,41.22
2022-09-16T07:14:35.495Z,40.17
2022-09-16T07:15:56.262Z,41.15
2022-09-16T07:17:02.347Z,41.51
2022-09-16T07:18:05.562Z,41.40
2022-09-16T07:19:08.538Z,41.89
2022-09-16T07:20:11.471Z,42.43
2022-09-16T07:21:19.319Z,43.04
2022-09-16T07:22:22.186Z,43.26
2022-09-16T07:23:25.356Z,43.62
2022-09-16T07:24:28.353Z,43.80
2022-09-16T07:25:35.714Z,44.04
2022-09-16T07:26:41.253Z,44.21
2022-09-16T07:27:44.267Z,44.54
2022-09-16T07:28:49.408Z,45.18
2022-09-16T07:29:54.087Z,45.42
2022-09-16T07:31:01.267Z,45.93
2022-09-16T07:32:04.331Z,45.65
2022-09-16T07:33:07.150Z,45.26
2022-09-16T07:34:12.663Z,45.67
2022-09-16T07:35:15.986Z,45.43
2022-09-16T07:36:23.643Z,45.84
2022-09-16T07:37:28.697Z,46.33
2022-09-16T07:38:32.395Z,47.08
2022-09-16T07:39:35.557Z,46.45
2022-09-16T07:40:40.877Z,46.25
2022-09-16T07:41:46.579Z,46.81
2022-09-16T07:42:49.522Z,46.57
2022-09-16T07:43:55.677Z,46.55
2022-09-16T07:44:58.525Z,46.62
2022-09-16T07:46:02.135Z,47.04
2022-09-16T07:47:05.414Z,46.99
2022-09-16T07:48:08.210Z,47.22
2022-09-16T07:49:14.645Z,47.04
2022-09-16T07:50:17.972Z,47.06
2022-09-16T07:51:24.529Z,46.63
2022-09-16T07:52:29.430Z,47.01
2022-09-16T07:53:33.646Z,46.77
2022-09-16T07:54:36.725Z,46.89
2022-09-16T07:55:39.589Z,46.97
2022-09-16T07:56:44.519Z,46.79
2022-09-16T07:57:47.341Z,47.16
2022-09-16T07:58:54.376Z,47.58
2022-09-16T07:59:57.974Z,47.74
2022-09-16T08:01:04.837Z,48.01
2022-09-16T08:02:09.446Z,47.70
2022-09-16T08:03:12.506Z,46.57
2022-09-16T08:04:16.371Z,46.96
2022-09-16T08:05:19.377Z,47.01
2022-09-16T08:06:27.165Z,46.86
2022-09-16T08:07:30.204Z,47.51
2022-09-16T08:08:34.517Z,48.13
2022-09-16T08:09:45.103Z,48.49
2022-09-16T08:10:58.588Z,48.20
2022-09-16T08:12:04.756Z,48.76
2022-09-16T08:13:08.705Z,48.23
2022-09-16T08:14:11.556Z,48.74
2022-09-16T08:15:15.115Z,48.79
2022-09-16T08:16:21.258Z,48.95
2022-09-16T08:17:24.276Z,48.99
2022-09-16T08:18:27.621Z,49.00
2022-09-16T08:19:30.953Z,48.92
2022-09-16T08:20:33.790Z,48.86
2022-09-16T08:21:36.792Z,49.75
2022-09-16T08:22:39.804Z,49.78
2022-09-16T08:23:43.636Z,50.52
2022-09-16T08:24:46.578Z,51.11
2022-09-16T08:25:58.858Z,50.83
2022-09-16T08:27:02.071Z,51.11
2022-09-16T08:28:04.954Z,50.96
2022-09-16T08:29:09.815Z,51.53
2022-09-16T08:30:13.267Z,51.97
2022-09-16T08:31:18.284Z,52.57
2022-09-16T08:32:21.830Z,51.77
2022-09-16T08:33:26.281Z,51.83
2022-09-16T08:34:29.074Z,52.07
2022-09-16T08:35:32.129Z,51.62
2022-09-16T08:36:35.050Z,52.50
2022-09-16T08:37:38.067Z,52.57
2022-09-16T08:38:43.952Z,51.75
2022-09-16T08:39:49.660Z,50.51
2022-09-16T08:41:05.180Z,50.75
2022-09-16T08:42:45.164Z,51.19
2022-09-16T08:44:05.862Z,51.44
2022-09-16T08:45:31.435Z,52.01
2022-09-16T08:46:40.115Z,51.91
2022-09-16T08:48:39.979Z,54.01
2022-09-16T08:49:51.168Z,54.22
2022-09-16T08:50:55.030Z,54.36
2022-09-16T08:52:02.007Z,55.54
2022-09-16T08:53:14.910Z,55.43
2022-09-16T08:54:49.940Z,53.98
2022-09-16T08:55:53.703Z,53.48
2022-09-16T08:57:03.427Z,53.70
2022-09-16T08:58:13.735Z,53.93
2022-09-16T08:59:25.092Z,53.38
2022-09-16T09:00:28.434Z,52.48
2022-09-16T09:02:12.972Z,50.77
2022-09-16T09:03:37.811Z,51.31
2022-09-16T09:04:41.013Z,51.98
2022-09-16T09:05:51.730Z,50.11
2022-09-16T09:07:08.132Z,49.95
2022-09-16T09:08:22.327Z,47.60
2022-09-16T09:09:40.323Z,48.14
2022-09-16T09:10:52.012Z,48.85
2022-09-16T09:12:11.955Z,50.24
2022-09-16T09:13:33.743Z,49.12
2022-09-16T09:15:28.017Z,47.85
2022-09-16T09:17:02.307Z,46.04
2022-09-16T09:18:33.952Z,43.78
2022-09-16T09:20:07.089Z,42.11
2022-09-16T09:21:32.797Z,40.29
2022-09-16T09:22:59.996Z,42.38
2022-09-16T09:24:17.835Z,42.18
2022-09-16T09:25:56.951Z,44.83
2022-09-16T09:27:31.011Z,47.70
2022-09-16T09:28:39.347Z,49.16
2022-09-16T09:29:57.055Z,50.88
2022-09-16T09:31:18.634Z,52.72
2022-09-16T09:32:59.151Z,54.10
2022-09-16T09:34:23.040Z,56.17
2022-09-16T09:36:05.518Z,56.68
2022-09-16T09:38:02.942Z,57.98
2022-09-16T09:39:16.461Z,57.31
2022-09-16T09:40:23.646Z,55.38
2022-09-16T09:41:54.724Z,56.91
2022-09-16T09:43:19.309Z,59.07
2022-09-16T09:44:52.804Z,60.20
2022-09-16T09:46:31.655Z,58.82
2022-09-16T09:47:44.074Z,60.61
2022-09-16T09:49:27.851Z,61.00
2022-09-16T09:50:36.448Z,62.25
2022-09-16T09:51:45.816Z,62.01
2022-09-16T09:53:11.193Z,60.92
2022-09-16T09:54:30.466Z,60.75
2022-09-16T09:55:35.459Z,60.73
2022-09-16T09:56:45.757Z,59.09
2022-09-16T09:58:19.258Z,60.48
2022-09-16T09:59:45.642Z,60.16
2022-09-16T10:00:48.714Z,55.69
2022-09-16T10:02:00.562Z,56.71
2022-09-16T10:03:12.492Z,57.42
2022-09-16T10:04:16.306Z,57.39
2022-09-16T10:05:27.492Z,53.23
2022-09-16T10:06:35.721Z,51.43
2022-09-16T10:07:39.327Z,52.34
2022-09-16T10:08:54.340Z,52.58
2022-09-16T10:10:04.044Z,53.77
2022-09-16T10:11:21.782Z,54.69
2022-09-16T10:12:35.122Z,54.23
2022-09-16T10:13:53.759Z,50.44
2022-09-16T10:14:57.028Z,53.09
2022-09-16T10:16:21.570Z,50.41
2022-09-16T10:17:27.789Z,49.33
2022-09-16T10:18:33.576Z,49.50
2022-09-16T10:19:58.076Z,46.52
2022-09-16T10:21:07.794Z,46.28
2022-09-16T10:22:19.205Z,45.51
2022-09-16T10:23:29.782Z,45.52
2022-09-16T10:24:43.343Z,42.65
2022-09-16T10:25:46.886Z,41.48
2022-09-16T10:26:49.979Z,43.53
2022-09-16T10:28:02.763Z,40.75
2022-09-16T10:29:19.616Z,39.24
2022-09-16T10:31:34.245Z,39.57
2022-09-16T10:33:00.158Z,38.52
2022-09-16T10:34:21.971Z,39.23
2022-09-16T10:35:34.722Z,41.28
2022-09-16T10:36:38.139Z,38.60
2022-09-16T10:38:16.047Z,41.10
2022-09-16T10:39:27.431Z,43.51
2022-09-16T10:40:32.064Z,44.79
2022-09-16T10:41:45.857Z,46.27
2022-09-16T10:42:50.766Z,48.40
2022-09-16T10:44:26.719Z,50.19
2022-09-16T10:45:35.106Z,47.94
2022-09-16T10:46:38.554Z,46.63
2022-09-16T10:47:48.650Z,48.64
2022-09-16T10:48:54.303Z,48.09
2022-09-16T10:50:05.113Z,49.37
2022-09-16T10:51:31.125Z,49.96
2022-09-16T10:52:47.008Z,51.08
2022-09-16T10:54:02.627Z,51.62
2022-09-16T10:55:27.761Z,52.79
2022-09-16T10:56:35.359Z,53.31
2022-09-16T10:57:41.943Z,53.11
2022-09-16T10:58:45.067Z,52.88
2022-09-16T11:00:08.986Z,52.55
2022-09-16T11:01:45.460Z,52.16
2022-09-16T11:03:23.754Z,48.76
2022-09-16T11:05:06.095Z,50.38
2022-09-16T11:06:40.401Z,50.69
2022-09-16T11:07:58.749Z,51.56
2022-09-16T11:09:41.183Z,51.82
2022-09-16T11:11:20.964Z,51.34
2022-09-16T11:12:50.594Z,51.40
2022-09-16T11:14:36.213Z,51.36
2022-09-16T11:16:16.267Z,50.41
2022-09-16T11:17:40.449Z,50.83
2022-09-16T11:19:06.222Z,51.48
2022-09-16T11:21:06.192Z,51.14
2022-09-16T11:22:38.236Z,47.30
2022-09-16T11:24:16.899Z,44.73
2022-09-16T11:26:02.646Z,41.97
2022-09-16T11:27:08.317Z,40.49
2022-09-16T11:28:26.008Z,39.55
2022-09-16T11:29:48.008Z,37.82
2022-09-16T11:31:17.906Z,36.34
2022-09-16T11:34:56.121Z,34.34
2022-09-16T11:36:32.624Z,33.97
2022-09-16T11:37:56.203Z,33.05
2022-09-16T11:39:46.669Z,32.32
2022-09-16T11:41:49.208Z,31.63
2022-09-16T11:43:19.785Z,31.21
2022-09-16T11:44:37.743Z,30.83
2022-09-16T11:46:05.492Z,30.07
2022-09-16T11:47:48.503Z,29.94
2022-09-16T11:49:21.813Z,29.99
2022-09-16T11:51:04.299Z,29.57
2022-09-16T11:52:30.642Z,29.48
2022-09-16T11:54:19.985Z,29.39
2022-09-16T11:55:50.647Z,29.08
2022-09-16T11:56:57.735Z,28.97
2022-09-16T11:58:38.378Z,28.73
2022-09-16T11:59:54.676Z,28.79
2022-09-16T12:01:03.968Z,28.74
2022-09-16T12:02:42.216Z,28.80
2022-09-16T12:03:59.094Z,28.78
2022-09-16T12:05:16.178Z,28.48
2022-09-16T12:06:25.126Z,28.07
2022-09-16T12:08:02.469Z,27.90
2022-09-16T12:09:20.491Z,27.82
2022-09-16T12:11:04.084Z,27.63
2022-09-16T12:12:18.773Z,27.46
2022-09-16T12:13:40.584Z,27.31
2022-09-16T12:14:55.035Z,27.17
2022-09-16T12:16:14.802Z,27.00
2022-09-16T12:17:35.820Z,26.93
2022-09-16T12:18:51.678Z,27.10
2022-09-16T12:20:13.718Z,27.04
2022-09-16T12:21:31.154Z,27.20
2022-09-16T12:22:49.163Z,27.08
2022-09-16T12:24:04.472Z,27.44
2022-09-16T12:25:17.580Z,27.62
2022-09-16T12:26:26.440Z,27.79
2022-09-16T12:27:52.468Z,27.98
2022-09-16T12:29:37.659Z,28.07
2022-09-16T12:30:47.688Z,27.92
2022-09-16T12:31:59.437Z,27.76
2022-09-16T12:33:24.611Z,27.63
2022-09-16T12:34:49.583Z,27.56
2022-09-16T12:36:06.960Z,27.55
2022-09-16T12:37:36.566Z,27.62
2022-09-16T12:38:40.337Z,27.64
2022-09-16T12:39:43.795Z,27.50
2022-09-16T12:41:17.186Z,27.78
2022-09-16T12:43:02.609Z,28.00
2022-09-16T12:44:54.045Z,28.01
2022-09-16T12:46:37.133Z,28.02
2022-09-16T12:48:32.666Z,28.02
2022-09-16T12:50:19.772Z,28.08
2022-09-16T12:52:09.738Z,28.17
2022-09-16T12:53:40.980Z,27.95
2022-09-16T12:55:09.261Z,27.94
2022-09-16T12:56:27.391Z,27.94
2022-09-16T12:57:39.956Z,27.94
2022-09-16T12:59:13.611Z,27.80
2022-09-16T13:00:27.407Z,27.78
2022-09-16T13:01:42.791Z,27.58
2022-09-16T13:02:59.556Z,27.54
2022-09-16T13:04:22.621Z,27.40
2022-09-16T13:05:39.427Z,27.36
2022-09-16T13:06:52.018Z,27.23
2022-09-16T13:08:00.809Z,27.27
2022-09-16T13:09:38.440Z,27.14
2022-09-16T13:11:19.967Z,27.29
2022-09-16T13:12:39.309Z,27.46
2022-09-16T13:13:56.749Z,27.46
2022-09-16T13:15:05.701Z,27.43
2022-09-16T13:16:09.719Z,27.50
2022-09-16T13:17:13.009Z,27.19
2022-09-16T13:18:18.574Z,27.14
2022-09-16T13:19:53.166Z,27.29
2022-09-16T13:21:05.740Z,27.18
2022-09-16T13:22:15.538Z,27.23
2022-09-16T13:23:34.179Z,27.25
2022-09-16T13:24:42.580Z,27.37
2022-09-16T13:26:08.506Z,27.45
2022-09-16T13:27:29.844Z,27.44
2022-09-16T13:28:32.587Z,27.40
2022-09-16T13:29:38.384Z,27.32
2022-09-16T13:30:41.588Z,27.11
2022-09-16T13:31:49.262Z,27.05
2022-09-16T13:32:52.213Z,26.94
2022-09-16T13:33:57.680Z,26.85
2022-09-16T13:35:05.530Z,26.99
2022-09-16T13:36:20.192Z,26.84
2022-09-16T13:37:27.210Z,26.90
2022-09-16T13:38:39.925Z,26.72
2022-09-16T13:39:44.425Z,26.62
2022-09-16T13:41:13.426Z,26.53
2022-09-16T13:42:21.813Z,26.44
2022-09-16T13:43:43.051Z,26.22
2022-09-16T13:44:46.142Z,26.25
2022-09-16T13:45:49.076Z,26.20
2022-09-16T13:46:52.328Z,26.10
2022-09-16T13:47:55.363Z,26.17
2022-09-16T13:49:05.164Z,26.13
2022-09-16T13:50:16.291Z,26.06
2022-09-16T13:51:22.443Z,26.07
2022-09-16T13:52:30.778Z,26.04
2022-09-16T13:53:37.543Z,26.09
2022-09-16T13:55:17.079Z,26.00
2022-09-16T13:56:57.166Z,25.74
2022-09-16T13:58:30.932Z,25.87
2022-09-16T14:01:42.196Z,25.73
2022-09-16T14:03:21.378Z,25.73
2022-09-16T14:04:41.233Z,25.83
2022-09-16T14:06:12.709Z,25.71
2022-09-16T14:07:31.682Z,25.62
2022-09-16T14:09:16.698Z,25.42
2022-09-16T14:11:08.847Z,25.35
2022-09-16T14:12:33.071Z,25.33
2022-09-16T14:13:50.549Z,25.30
2022-09-16T14:14:53.702Z,25.20
2022-09-16T14:15:59.301Z,25.22
2022-09-16T14:17:19.485Z,25.22
2022-09-16T14:18:29.153Z,25.12
2022-09-16T14:19:38.570Z,25.12
2022-09-16T14:21:19.539Z,25.02
2022-09-16T14:22:25.662Z,25.13
2022-09-16T14:23:30.128Z,25.19
2022-09-16T14:24:42.177Z,25.36
2022-09-16T14:25:45.177Z,25.48
2022-09-16T14:26:57.049Z,25.64
2022-09-16T14:28:18.607Z,25.96
2022-09-16T14:29:24.423Z,25.95
2022-09-16T14:30:27.297Z,26.12
2022-09-16T14:31:33.743Z,26.15
2022-09-16T14:32:38.061Z,26.07
2022-09-16T14:33:56.400Z,25.88
2022-09-16T14:35:09.392Z,25.86
2022-09-16T14:36:32.464Z,25.70
2022-09-16T14:37:37.358Z,25.59
2022-09-16T14:38:59.238Z,25.56
2022-09-16T14:40:14.218Z,25.48
2022-09-16T14:41:41.410Z,25.32
2022-09-16T14:42:59.675Z,25.35
2022-09-16T14:44:18.697Z,25.29
2022-09-16T14:45:22.373Z,25.29
2022-09-16T14:46:26.774Z,25.23
2022-09-16T14:47:51.002Z,25.19
2022-09-16T14:48:55.090Z,25.25
2022-09-16T14:50:20.244Z,25.35
2022-09-16T14:51:27.451Z,25.32
2022-09-16T14:52:35.331Z,25.25
2022-09-16T14:53:38.689Z,25.40
2022-09-16T14:54:44.910Z,25.44
2022-09-16T14:55:49.912Z,25.53
2022-09-16T14:57:06.378Z,25.61
2022-09-16T14:58:11.034Z,25.66
2022-09-16T14:59:15.563Z,25.76
2022-09-16T15:00:24.873Z,25.85
2022-09-16T15:01:28.390Z,25.94
2022-09-16T15:02:46.373Z,25.88
2022-09-16T15:04:01.961Z,25.82
2022-09-16T15:05:33.412Z,25.69
2022-09-16T15:06:47.314Z,25.45
2022-09-16T15:08:12.791Z,25.45
2022-09-16T15:09:36.967Z,25.07
2022-09-16T15:10:55.465Z,24.81
2022-09-16T15:12:01.428Z,24.73
2022-09-16T15:13:16.866Z,24.76
2022-09-16T15:14:20.495Z,24.75
2022-09-16T15:15:27.999Z,24.68
2022-09-16T15:16:32.149Z,24.62
2022-09-16T15:17:35.362Z,24.63
2022-09-16T15:19:04.433Z,24.60
2022-09-16T15:20:22.588Z,24.42
2022-09-16T15:21:33.203Z,24.41
2022-09-16T15:22:40.367Z,24.42
2022-09-16T15:23:53.463Z,24.46
2022-09-16T15:24:59.486Z,24.34
2022-09-16T15:26:15.307Z,24.32
2022-09-16T15:27:24.787Z,24.31
2022-09-16T15:28:27.792Z,24.31
2022-09-16T15:29:35.337Z,24.26
2022-09-16T15:30:50.706Z,24.28
2022-09-16T15:31:53.762Z,24.13
2022-09-16T15:32:56.705Z,24.12
2022-09-16T15:34:03.637Z,24.06
2022-09-16T15:35:18.118Z,23.98
2022-09-16T15:36:41.919Z,23.93
2022-09-16T15:37:45.792Z,23.96
2022-09-16T15:38:58.216Z,23.88
2022-09-16T15:40:31.871Z,23.75
2022-09-16T15:41:35.104Z,23.77
2022-09-16T15:42:38.503Z,23.70
2022-09-16T15:43:45.665Z,23.67